createdAt,value
2018-04-15T00:00:59.292Z,7.10
2018-04-15T00:03:27.591Z,7.20
2018-04-15T00:05:55.088Z,7.20
2018-04-15T00:08:22.620Z,7.10
2018-04-15T00:10:50.123Z,7.00
2018-04-15T00:13:17.645Z,6.90
2018-04-15T00:15:45.131Z,6.90
2018-04-15T00:18:12.662Z,6.80
2018-04-15T00:20:40.156Z,6.80
2018-04-15T00:23:07.694Z,6.80
2018-04-15T00:25:35.203Z,6.80
2018-04-15T00:28:02.706Z,6.80
2018-04-15T00:30:30.228Z,6.70
2018-04-15T00:32:57.745Z,6.60
2018-04-15T00:35:25.265Z,6.50
2018-04-15T00:37:52.754Z,6.40
2018-04-15T00:40:20.267Z,6.40
2018-04-15T00:42:47.777Z,6.30
2018-04-15T00:45:15.300Z,6.30
2018-04-15T00:47:42.801Z,6.30
2018-04-15T00:50:10.295Z,6.30
2018-04-15T00:52:37.821Z,6.30
2018-04-15T00:55:05.338Z,6.30
2018-04-15T00:57:32.850Z,6.30
2018-04-15T01:00:01.127Z,6.20
2018-04-15T01:02:29.417Z,6.10
2018-04-15T01:04:56.911Z,6.10
2018-04-15T01:07:24.423Z,6.10
2018-04-15T01:09:52.745Z,6.00
2018-04-15T01:12:20.254Z,6.00
2018-04-15T01:14:48.542Z,5.90
2018-04-15T01:17:16.056Z,5.90
2018-04-15T01:19:43.589Z,5.80
2018-04-15T01:22:11.083Z,5.80
2018-04-15T01:24:38.592Z,5.70
2018-04-15T01:27:06.089Z,5.60
2018-04-15T01:29:33.600Z,5.50
2018-04-15T01:32:01.101Z,5.50
2018-04-15T01:34:28.635Z,5.50
2018-04-15T01:36:56.136Z,5.50
2018-04-15T01:39:23.635Z,5.50
2018-04-15T01:41:51.153Z,5.50
2018-04-15T01:44:18.652Z,5.50
2018-04-15T01:46:46.176Z,5.40
2018-04-15T01:49:13.685Z,5.30
2018-04-15T01:51:41.209Z,5.30
2018-04-15T01:54:09.468Z,5.30
2018-04-15T01:56:36.997Z,5.20
2018-04-15T01:59:04.505Z,5.30
2018-04-15T02:01:32.767Z,5.40
2018-04-15T02:04:01.053Z,5.30
2018-04-15T02:06:29.321Z,5.30
2018-04-15T02:08:57.614Z,5.20
2018-04-15T02:11:25.872Z,5.20
2018-04-15T02:13:54.161Z,5.20
2018-04-15T02:16:22.433Z,5.20
2018-04-15T02:18:50.723Z,5.20
2018-04-15T02:21:18.233Z,5.10
2018-04-15T02:23:45.764Z,5.10
2018-04-15T02:26:13.261Z,5.10
2018-04-15T02:28:40.757Z,5.10
2018-04-15T02:31:08.281Z,5.20
2018-04-15T02:33:35.785Z,5.20
2018-04-15T02:36:03.311Z,5.20
2018-04-15T02:38:31.569Z,5.10
2018-04-15T02:40:59.094Z,5.10
2018-04-15T02:43:26.601Z,5.00
2018-04-15T02:45:54.116Z,5.00
2018-04-15T02:48:21.610Z,4.90
2018-04-15T02:50:49.104Z,5.00
2018-04-15T02:53:16.612Z,5.00
2018-04-15T02:55:44.876Z,5.00
2018-04-15T02:58:12.402Z,5.00
2018-04-15T03:00:39.918Z,5.10
2018-04-15T03:03:07.443Z,5.10
2018-04-15T03:05:34.932Z,5.00
2018-04-15T03:08:02.452Z,5.00
2018-04-15T03:10:29.951Z,4.90
2018-04-15T03:12:57.471Z,4.80
2018-04-15T03:15:24.973Z,4.80
2018-04-15T03:17:52.478Z,4.70
2018-04-15T03:20:20.001Z,4.70
2018-04-15T03:22:48.256Z,4.70
2018-04-15T03:25:15.768Z,4.70
2018-04-15T03:27:43.269Z,4.70
2018-04-15T03:30:10.793Z,4.70
2018-04-15T03:32:38.291Z,4.70
2018-04-15T03:35:05.809Z,4.70
2018-04-15T03:37:33.313Z,4.70
2018-04-15T03:40:00.807Z,4.70
2018-04-15T03:42:28.315Z,4.70
2018-04-15T03:44:55.807Z,4.70
2018-04-15T03:47:24.090Z,4.70
2018-04-15T03:49:52.348Z,4.70
2018-04-15T03:52:20.628Z,4.70
2018-04-15T03:54:48.897Z,4.80
2018-04-15T03:57:16.829Z,4.70
2018-04-15T03:59:44.342Z,4.70
2018-04-15T04:02:12.623Z,4.70
2018-04-15T04:04:40.133Z,4.70
2018-04-15T04:07:07.623Z,4.70
2018-04-15T04:09:35.899Z,4.70
2018-04-15T04:12:04.163Z,4.70
2018-04-15T04:14:31.673Z,4.60
2018-04-15T04:16:59.163Z,4.70
2018-04-15T04:19:38.413Z,4.70
2018-04-15T04:22:17.718Z,4.70
2018-04-15T04:24:58.111Z,4.70
2018-04-15T04:27:25.605Z,4.80
2018-04-15T04:29:53.121Z,5.00
2018-04-15T04:32:20.634Z,5.20
2018-04-15T04:34:48.139Z,5.40
2018-04-15T04:37:15.663Z,5.50
2018-04-15T04:39:43.160Z,5.50
2018-04-15T04:42:10.681Z,5.40
2018-04-15T04:44:38.190Z,5.40
2018-04-15T04:47:06.473Z,5.20
2018-04-15T04:49:34.751Z,5.10
2018-04-15T04:52:03.028Z,5.00
2018-04-15T04:54:31.301Z,5.00
2018-04-15T04:56:59.582Z,4.90
2018-04-15T04:59:27.869Z,4.90
2018-04-15T05:01:55.377Z,4.90
2018-04-15T05:04:22.893Z,4.90
2018-04-15T05:06:50.401Z,4.80
2018-04-15T05:09:17.929Z,4.80
2018-04-15T05:11:45.437Z,4.80
2018-04-15T05:14:13.719Z,5.00
2018-04-15T05:16:41.975Z,5.20
2018-04-15T05:19:09.471Z,5.20
2018-04-15T05:21:36.990Z,5.30
2018-04-15T05:24:05.264Z,5.30
2018-04-15T05:26:32.797Z,5.30
2018-04-15T05:29:00.300Z,5.30
2018-04-15T05:31:28.585Z,5.40
2018-04-15T05:33:56.847Z,5.40
2018-04-15T05:36:25.128Z,5.30
2018-04-15T05:38:53.445Z,5.30
2018-04-15T05:41:20.982Z,5.30
2018-04-15T05:43:48.497Z,5.30
2018-04-15T05:46:15.992Z,5.40
2018-04-15T05:48:44.266Z,5.50
2018-04-15T05:51:12.524Z,5.50
2018-04-15T05:53:40.041Z,5.50
2018-04-15T05:56:07.532Z,5.60
2018-04-15T05:58:35.049Z,5.70
2018-04-15T06:01:02.544Z,5.90
2018-04-15T06:03:30.055Z,6.00
2018-04-15T06:05:57.555Z,6.10
2018-04-15T06:08:25.047Z,6.20
2018-04-15T06:10:53.322Z,6.50
2018-04-15T06:13:21.580Z,6.70
2018-04-15T06:15:49.102Z,6.70
2018-04-15T06:18:16.609Z,6.80
2018-04-15T06:20:44.885Z,7.10
2018-04-15T06:23:13.152Z,7.30
2018-04-15T06:25:41.280Z,7.20
2018-04-15T06:28:08.770Z,7.50
2018-04-15T06:30:36.289Z,8.00
2018-04-15T06:33:03.794Z,8.50
2018-04-15T06:35:31.349Z,9.10
2018-04-15T06:37:58.866Z,9.80
2018-04-15T06:40:26.372Z,10.30
2018-04-15T06:42:53.892Z,10.70
2018-04-15T06:45:21.463Z,11.30
2018-04-15T06:47:48.940Z,12.10
2018-04-15T06:50:16.454Z,13.10
2018-04-15T06:52:43.983Z,14.30
2018-04-15T06:55:12.265Z,15.80
2018-04-15T06:57:40.548Z,15.70
2018-04-15T07:00:08.068Z,15.70
2018-04-15T07:02:36.348Z,15.00
2018-04-15T07:05:03.877Z,15.00
2018-04-15T07:07:31.380Z,14.90
2018-04-15T07:09:59.681Z,16.90
2018-04-15T07:12:27.197Z,16.90
2018-04-15T07:14:54.715Z,16.90
2018-04-15T07:17:22.235Z,17.60
2018-04-15T07:19:50.523Z,19.50
2018-04-15T07:22:18.045Z,19.40
2018-04-15T07:24:45.554Z,20.10
2018-04-15T07:27:13.085Z,20.40
2018-04-15T07:29:41.352Z,20.70
2018-04-15T07:32:08.868Z,20.70
2018-04-15T07:34:36.363Z,20.80
2018-04-15T07:37:03.885Z,20.80
2018-04-15T07:39:31.376Z,20.60
2018-04-15T07:41:58.910Z,20.60
2018-04-15T07:44:26.421Z,20.60
2018-04-15T07:46:54.693Z,20.40
2018-04-15T07:49:22.975Z,20.20
2018-04-15T07:51:51.261Z,19.80
2018-04-15T07:54:18.788Z,19.80
2018-04-15T07:56:46.302Z,19.40
2018-04-15T07:59:13.819Z,19.10
2018-04-15T08:01:42.084Z,18.60
2018-04-15T08:04:10.421Z,18.40
2018-04-15T08:06:37.929Z,18.30
2018-04-15T08:09:06.229Z,17.80
2018-04-15T08:11:33.728Z,17.70
2018-04-15T08:14:01.223Z,17.60
2018-04-15T08:16:29.513Z,17.30
2018-04-15T08:18:57.787Z,17.10
2018-04-15T08:21:26.067Z,17.00
2018-04-15T08:23:54.340Z,17.00
2018-04-15T08:26:22.632Z,16.90
2018-04-15T08:28:50.150Z,16.90
2018-04-15T08:31:17.669Z,16.90
2018-04-15T08:33:45.178Z,16.90
2018-04-15T08:36:13.445Z,17.20
2018-04-15T08:38:40.955Z,17.10
2018-04-15T08:41:08.466Z,17.40
2018-04-15T08:43:35.997Z,17.50
2018-04-15T08:46:03.506Z,17.70
2018-04-15T08:48:31.034Z,17.90
2018-04-15T08:50:58.535Z,18.20
2018-04-15T08:53:26.066Z,18.20
2018-04-15T08:55:54.347Z,18.10
2018-04-15T08:58:22.627Z,18.00
2018-04-15T09:00:50.884Z,18.00
2018-04-15T09:03:18.385Z,18.00
2018-04-15T09:05:45.917Z,18.10
2018-04-15T09:08:14.180Z,18.10
2018-04-15T09:10:42.463Z,18.00
2018-04-15T09:13:10.737Z,17.90
2018-04-15T09:15:39.040Z,17.80
2018-04-15T09:18:06.561Z,17.80
2018-04-15T09:20:34.852Z,17.60
2018-04-15T09:23:03.129Z,17.60
2018-04-15T09:25:31.411Z,17.50
2018-04-15T09:27:59.675Z,17.50
2018-04-15T09:30:27.943Z,17.40
2018-04-15T09:32:55.471Z,17.50
2018-04-15T09:35:24.183Z,17.40
2018-04-15T09:37:51.765Z,17.40
2018-04-15T09:40:22.079Z,17.50
2018-04-15T09:42:50.365Z,17.50
2018-04-15T09:45:18.642Z,17.50
2018-04-15T09:47:46.942Z,17.50
2018-04-15T09:50:14.438Z,17.50
2018-04-15T09:52:41.931Z,17.40
2018-04-15T09:55:10.221Z,17.30
2018-04-15T09:57:38.519Z,17.20
2018-04-15T10:00:06.042Z,17.20
2018-04-15T10:02:34.318Z,17.10
2018-04-15T10:05:02.684Z,17.10
2018-04-15T10:07:30.195Z,17.10
2018-04-15T10:09:57.722Z,17.10
2018-04-15T10:12:25.988Z,17.20
2018-04-15T10:14:54.285Z,17.20
2018-04-15T10:17:21.779Z,17.20
2018-04-15T10:19:49.276Z,17.30
2018-04-15T10:22:17.559Z,17.30
2018-04-15T10:24:45.827Z,17.30
2018-04-15T10:27:13.457Z,17.30
2018-04-15T10:29:42.116Z,17.20
2018-04-15T10:32:09.631Z,17.20
2018-04-15T10:34:37.129Z,17.20
2018-04-15T10:37:04.660Z,17.20
2018-04-15T10:39:32.942Z,17.20
2018-04-15T10:42:01.205Z,17.20
2018-04-15T10:44:29.492Z,17.30
2018-04-15T10:46:57.951Z,17.20
2018-04-15T10:49:25.528Z,17.20
2018-04-15T10:51:53.004Z,17.20
2018-04-15T10:54:20.521Z,17.20
2018-04-15T10:56:48.044Z,17.30
2018-04-15T10:59:15.563Z,17.30
2018-04-15T11:01:43.840Z,17.30
2018-04-15T11:04:12.128Z,17.40
2018-04-15T11:06:39.640Z,17.30
2018-04-15T11:09:07.139Z,17.40
2018-04-15T11:11:35.425Z,17.40
2018-04-15T11:14:02.996Z,17.40
2018-04-15T11:16:30.469Z,17.50
2018-04-15T11:18:57.982Z,17.60
2018-04-15T11:21:26.277Z,17.90
2018-04-15T11:23:53.793Z,17.90
2018-04-15T11:26:21.325Z,17.90
2018-04-15T11:28:48.844Z,17.90
2018-04-15T11:31:17.117Z,17.90
2018-04-15T11:33:45.408Z,18.00
2018-04-15T11:36:12.908Z,18.00
2018-04-15T11:38:40.435Z,18.10
2018-04-15T11:41:07.940Z,18.00
2018-04-15T11:43:35.460Z,18.10
2018-04-15T11:46:02.966Z,18.10
2018-04-15T11:48:30.494Z,18.00
2018-04-15T11:50:58.001Z,18.10
2018-04-15T11:53:26.281Z,18.00
2018-04-15T11:55:54.566Z,17.90
2018-04-15T11:58:22.061Z,17.90
2018-04-15T12:00:49.576Z,18.00
2018-04-15T12:03:17.844Z,18.20
2018-04-15T12:05:46.124Z,18.40
2018-04-15T12:08:15.479Z,18.60
2018-04-15T12:10:43.010Z,18.60
2018-04-15T12:13:10.529Z,18.70
2018-04-15T12:15:38.831Z,18.90
2018-04-15T12:18:06.346Z,18.90
2018-04-15T12:20:33.851Z,19.10
2018-04-15T12:23:01.367Z,19.20
2018-04-15T12:25:28.881Z,19.30
2018-04-15T12:27:56.411Z,19.40
2018-04-15T12:30:24.697Z,19.50
2018-04-15T12:32:52.996Z,19.60
2018-04-15T12:35:20.496Z,19.50
2018-04-15T12:37:48.009Z,19.60
2018-04-15T12:40:15.521Z,19.30
2018-04-15T12:42:43.032Z,19.20
2018-04-15T12:45:10.557Z,19.30
2018-04-15T12:47:38.823Z,19.60
2018-04-15T12:50:07.118Z,19.70
2018-04-15T12:52:35.390Z,19.80
2018-04-15T12:55:04.668Z,19.70
2018-04-15T12:57:32.172Z,19.70
2018-04-15T12:59:59.698Z,19.70
2018-04-15T13:02:27.973Z,19.70
2018-04-15T13:04:56.277Z,19.50
2018-04-15T13:07:23.794Z,19.40
2018-04-15T13:09:52.105Z,19.20
2018-04-15T13:12:19.636Z,19.20
2018-04-15T13:14:47.143Z,19.30
2018-04-15T13:17:14.651Z,19.30
2018-04-15T13:19:42.147Z,19.30
2018-04-15T13:22:09.669Z,19.30
2018-04-15T13:24:37.177Z,19.30
2018-04-15T13:27:04.714Z,19.40
2018-04-15T13:29:32.231Z,19.50
2018-04-15T13:31:59.771Z,19.60
2018-04-15T13:34:28.090Z,19.40
2018-04-15T13:36:56.407Z,19.30
2018-04-15T13:39:23.941Z,19.30
2018-04-15T13:41:52.205Z,19.10
2018-04-15T13:44:20.491Z,19.00
2018-04-15T13:46:48.768Z,19.00
2018-04-15T13:49:17.052Z,19.00
2018-04-15T13:51:44.587Z,19.00
2018-04-15T13:54:12.876Z,19.20
2018-04-15T13:56:41.157Z,19.30
2018-04-15T13:59:09.459Z,19.30
2018-04-15T14:01:36.970Z,19.20
2018-04-15T14:04:04.497Z,19.30
2018-04-15T14:06:32.018Z,19.30
2018-04-15T14:08:59.530Z,19.30
2018-04-15T14:11:27.089Z,19.10
2018-04-15T14:13:54.633Z,19.10
2018-04-15T14:16:22.167Z,19.10
2018-04-15T14:18:49.678Z,19.20
2018-04-15T14:21:17.186Z,19.20
2018-04-15T14:23:44.716Z,19.30
2018-04-15T14:26:12.215Z,19.30
2018-04-15T14:28:39.736Z,19.30
2018-04-15T14:31:07.256Z,19.30
2018-04-15T14:33:34.795Z,19.20
2018-04-15T14:36:02.296Z,19.10
2018-04-15T14:38:30.615Z,19.10
2018-04-15T14:40:58.132Z,19.10
2018-04-15T14:43:26.425Z,18.90
2018-04-15T14:45:54.758Z,18.90
2018-04-15T14:48:23.039Z,18.90
2018-04-15T14:50:50.655Z,18.80
2018-04-15T14:53:18.200Z,18.80
2018-04-15T14:55:45.723Z,18.80
2018-04-15T14:58:13.234Z,18.70
2018-04-15T15:00:40.835Z,18.70
2018-04-15T15:03:08.368Z,18.70
2018-04-15T15:05:35.889Z,18.60
2018-04-15T15:08:04.178Z,18.50
2018-04-15T15:10:31.685Z,18.50
2018-04-15T15:12:59.257Z,18.40
2018-04-15T15:15:26.760Z,18.40
2018-04-15T15:17:55.327Z,18.30
2018-04-15T15:20:23.601Z,18.30
2018-04-15T15:22:51.897Z,18.20
2018-04-15T15:25:19.411Z,18.20
2018-04-15T15:27:46.939Z,18.20
2018-04-15T15:30:14.469Z,18.10
2018-04-15T15:32:41.993Z,18.00
2018-04-15T15:35:09.492Z,17.90
2018-04-15T15:37:37.005Z,17.90
2018-04-15T15:40:04.517Z,17.90
2018-04-15T15:42:32.025Z,17.90
2018-04-15T15:44:59.551Z,17.80
2018-04-15T15:47:27.088Z,17.60
2018-04-15T15:49:54.613Z,17.40
2018-04-15T15:52:22.918Z,17.40
2018-04-15T15:54:50.445Z,17.40
2018-04-15T15:57:18.730Z,17.30
2018-04-15T15:59:47.013Z,17.30
2018-04-15T16:02:15.301Z,17.20
2018-04-15T16:04:42.831Z,17.20
2018-04-15T16:07:11.141Z,17.10
2018-04-15T16:09:38.652Z,17.00
2018-04-15T16:12:06.181Z,17.10
2018-04-15T16:14:33.689Z,17.00
2018-04-15T16:17:02.018Z,17.00
2018-04-15T16:19:29.526Z,16.90
2018-04-15T16:21:57.842Z,17.00
2018-04-15T16:24:25.353Z,17.00
2018-04-15T16:26:53.652Z,17.10
2018-04-15T16:29:21.936Z,17.10
2018-04-15T16:31:49.436Z,17.00
2018-04-15T16:34:17.012Z,17.10
2018-04-15T16:36:44.476Z,17.10
2018-04-15T16:39:12.032Z,17.10
2018-04-15T16:41:39.533Z,17.10
2018-04-15T16:44:07.068Z,17.20
2018-04-15T16:46:35.328Z,17.10
2018-04-15T16:49:02.841Z,17.10
2018-04-15T16:51:30.619Z,17.00
2018-04-15T16:53:58.137Z,17.00
2018-04-15T16:56:26.429Z,17.00
2018-04-15T16:58:53.940Z,17.00
2018-04-15T17:01:21.478Z,16.80
2018-04-15T17:03:49.858Z,16.70
2018-04-15T17:06:17.604Z,16.70
2018-04-15T17:08:45.113Z,16.70
2018-04-15T17:11:13.461Z,16.80
2018-04-15T17:13:41.055Z,16.80
2018-04-15T17:16:09.351Z,16.70
2018-04-15T17:18:36.882Z,16.70
2018-04-15T17:21:05.175Z,16.60
2018-04-15T17:23:33.455Z,16.50
2018-04-15T17:26:01.746Z,16.40
2018-04-15T17:28:29.273Z,16.40
2018-04-15T17:30:57.550Z,16.10
2018-04-15T17:33:25.865Z,16.00
2018-04-15T17:35:53.376Z,16.00
2018-04-15T17:38:20.901Z,15.90
2018-04-15T17:40:48.411Z,15.90
2018-04-15T17:43:16.683Z,15.70
2018-04-15T17:45:45.020Z,15.60
2018-04-15T17:48:12.506Z,15.60
2018-04-15T17:50:40.023Z,15.60
2018-04-15T17:53:07.530Z,15.60
2018-04-15T17:55:35.816Z,15.50
2018-04-15T17:58:04.085Z,15.50
2018-04-15T18:00:31.608Z,15.50
2018-04-15T18:02:59.115Z,15.50
2018-04-15T18:05:27.411Z,15.60
2018-04-15T18:07:54.941Z,15.60
2018-04-15T18:10:23.206Z,15.50
2018-04-15T18:12:50.715Z,15.40
2018-04-15T18:15:18.255Z,15.40
2018-04-15T18:17:45.772Z,15.30
2018-04-15T18:20:13.280Z,15.20
2018-04-15T18:22:40.830Z,15.20
2018-04-15T18:25:08.377Z,15.10
2018-04-15T18:27:36.640Z,15.10
2018-04-15T18:30:04.936Z,15.10
2018-04-15T18:32:33.207Z,15.00
2018-04-15T18:35:01.489Z,15.00
2018-04-15T18:37:29.028Z,15.00
2018-04-15T18:39:57.324Z,14.90
2018-04-15T18:42:25.595Z,15.00
2018-04-15T18:44:53.900Z,15.00
2018-04-15T18:47:21.400Z,15.00
2018-04-15T18:49:48.920Z,14.90
2018-04-15T18:52:16.454Z,14.90
2018-04-15T18:54:44.737Z,14.80
2018-04-15T18:57:12.272Z,14.80
2018-04-15T18:59:40.545Z,14.80
2018-04-15T19:02:08.913Z,14.80
2018-04-15T19:04:36.401Z,14.80
2018-04-15T19:07:04.698Z,14.70
2018-04-15T19:09:32.219Z,14.70
2018-04-15T19:12:00.516Z,14.70
2018-04-15T19:14:28.100Z,14.70
2018-04-15T19:16:55.606Z,14.70
2018-04-15T19:19:23.127Z,14.70
2018-04-15T19:21:50.623Z,14.60
2018-04-15T19:24:18.135Z,14.60
2018-04-15T19:26:45.739Z,14.60
2018-04-15T19:29:13.303Z,14.50
2018-04-15T19:31:40.827Z,14.50
2018-04-15T19:34:08.372Z,14.50
2018-04-15T19:36:35.903Z,14.50
2018-04-15T19:39:04.176Z,14.60
2018-04-15T19:41:32.474Z,14.60
2018-04-15T19:43:59.989Z,14.60
2018-04-15T19:46:27.549Z,14.50
2018-04-15T19:48:55.059Z,14.50
2018-04-15T19:51:22.601Z,14.50
2018-04-15T19:53:50.111Z,14.50
2018-04-15T19:56:17.640Z,14.50
2018-04-15T19:58:45.150Z,14.50
2018-04-15T20:01:13.462Z,14.50
2018-04-15T20:03:40.986Z,14.40
2018-04-15T20:06:09.262Z,14.30
2018-04-15T20:08:37.556Z,14.30
2018-04-15T20:11:05.837Z,14.30
2018-04-15T20:13:33.371Z,14.30
2018-04-15T20:16:01.653Z,14.40
2018-04-15T20:18:29.961Z,14.40
2018-04-15T20:20:57.482Z,14.40
2018-04-15T20:23:25.801Z,14.50
2018-04-15T20:25:53.311Z,14.50
2018-04-15T20:28:20.810Z,14.50
2018-04-15T20:30:48.328Z,14.40
2018-04-15T20:33:15.911Z,14.20
2018-04-15T20:35:44.205Z,14.20
2018-04-15T20:38:11.718Z,14.10
2018-04-15T20:40:39.244Z,14.20
2018-04-15T20:43:06.750Z,14.20
2018-04-15T20:45:35.108Z,14.20
2018-04-15T20:48:03.408Z,14.10
2018-04-15T20:50:31.687Z,14.00
2018-04-15T20:52:59.990Z,13.90
2018-04-15T20:55:27.525Z,13.80
2018-04-15T20:57:55.837Z,13.70
2018-04-15T21:00:23.352Z,13.70
2018-04-15T21:02:51.682Z,13.60
2018-04-15T21:05:19.205Z,13.50
2018-04-15T21:07:46.758Z,13.50
2018-04-15T21:10:15.032Z,13.40
2018-04-15T21:12:43.331Z,13.30
2018-04-15T21:15:10.853Z,13.30
2018-04-15T21:17:38.361Z,13.20
2018-04-15T21:20:05.884Z,13.10
2018-04-15T21:22:34.169Z,12.90
2018-04-15T21:25:01.709Z,12.90
2018-04-15T21:27:29.987Z,12.80
2018-04-15T21:29:58.348Z,12.80
2018-04-15T21:32:25.866Z,12.70
2018-04-15T21:34:53.413Z,12.80
2018-04-15T21:37:20.919Z,12.70
2018-04-15T21:39:48.438Z,12.70
2018-04-15T21:42:15.982Z,12.70
2018-04-15T21:44:43.509Z,12.60
2018-04-15T21:47:11.043Z,12.60
2018-04-15T21:49:38.565Z,12.60
2018-04-15T21:52:06.092Z,12.60
2018-04-15T21:54:34.374Z,12.60
2018-04-15T21:57:02.690Z,12.60
2018-04-15T21:59:30.209Z,12.60
2018-04-15T22:01:57.770Z,12.60
2018-04-15T22:04:26.048Z,12.60
2018-04-15T22:06:54.338Z,12.70
2018-04-15T22:09:21.872Z,12.60
2018-04-15T22:12:01.330Z,12.60
2018-04-15T22:14:28.883Z,12.60
2018-04-15T22:16:57.161Z,12.40
2018-04-15T22:19:25.460Z,12.40
2018-04-15T22:21:52.983Z,12.30
2018-04-15T22:24:20.526Z,12.30
2018-04-15T22:26:48.056Z,12.20
2018-04-15T22:29:15.583Z,12.20
2018-04-15T22:31:43.105Z,12.20
2018-04-15T22:34:10.624Z,12.20
2018-04-15T22:36:38.172Z,12.20
2018-04-15T22:39:05.696Z,12.20
2018-04-15T22:41:33.223Z,12.30
2018-04-15T22:44:00.732Z,12.40
2018-04-15T22:46:29.058Z,12.50
2018-04-15T22:48:56.567Z,12.50
2018-04-15T22:51:24.123Z,12.50
2018-04-15T22:53:52.403Z,12.50
2018-04-15T22:56:20.689Z,12.40
2018-04-15T22:58:48.234Z,12.40
2018-04-15T23:01:16.508Z,12.10
2018-04-15T23:03:44.805Z,12.00
2018-04-15T23:06:12.325Z,12.00
2018-04-15T23:08:39.871Z,12.00
2018-04-15T23:11:07.392Z,12.00
2018-04-15T23:13:34.942Z,12.10
2018-04-15T23:16:02.448Z,12.20
2018-04-15T23:18:29.974Z,12.30
2018-04-15T23:20:57.517Z,12.30
2018-04-15T23:23:25.040Z,12.10
2018-04-15T23:25:53.357Z,12.10
2018-04-15T23:28:20.877Z,12.00
2018-04-15T23:30:48.428Z,12.10
2018-04-15T23:33:15.947Z,12.10
2018-04-15T23:35:43.502Z,12.20
2018-04-15T23:38:11.026Z,12.30
2018-04-15T23:40:39.340Z,12.40
2018-04-15T23:43:06.852Z,12.40
2018-04-15T23:45:35.147Z,12.60
2018-04-15T23:48:02.718Z,12.50
2018-04-15T23:50:30.245Z,12.60
2018-04-15T23:52:57.786Z,12.50
2018-04-15T23:55:25.296Z,12.50
2018-04-15T23:57:52.837Z,12.50
